Time;durP1;ratioP1;P1;durP2;ratioP2;P2;SDS_P1;SDS_P2;PMS_P1;PMS_P2;Temp;Humidity;BMP_temperature;BMP_pressure;BME280_temperature;BME280_humidity;BME280_pressure;Samples;Min_cycle;Max_cycle;Signal;HPM_P1;HPM_P2
2024/01/24 00:01:45;;;;;;;;;;;;;;;3.41;82.06;101154.84;105792;1293;59429;-56
2024/01/24 00:04:31;;;;;;;;;;;;;;;3.36;82.13;101140.73;105917;1293;75385;-56
2024/01/24 00:07:17;;;;;;;;;;;;;;;3.37;82.05;101121.84;105839;1293;67447;-56
2024/01/24 00:10:03;;;;;;;;;;;;;;;3.36;81.98;101105.13;105837;1292;73080;-56
2024/01/24 00:12:49;;;;;;;;;;;;;;;3.34;82.01;101087.71;105892;1293;59231;-56
2024/01/24 00:15:38;;;;;;;;;;;;;;;3.33;81.89;101079.16;105797;1293;59349;-56
2024/01/24 00:18:24;;;;;;;;;;;;;;;3.32;81.87;101073.70;105787;1296;73409;-56
2024/01/24 00:21:10;;;;;;;;;;;;;;;3.31;81.83;101060.55;105827;1292;69301;-54
2024/01/24 00:23:56;;;;;;;;;;;;;;;3.30;81.75;101055.59;105740;1294;72534;-56
2024/01/24 00:26:42;;;;;;;;;;;;;;;3.25;81.89;101059.59;105814;1293;59368;-56
2024/01/24 00:29:28;;;;;;;;;;;;;;;3.25;81.86;101054.13;105827;1293;59456;-55
2024/01/24 00:32:14;;;;;;;;;;;;;;;3.25;81.81;101053.96;105812;1292;73394;-56
2024/01/24 00:35:00;;;;;;;;;;;;;;;3.27;81.81;101054.69;105780;1294;68203;-56
2024/01/24 00:37:45;;;;;;;;;;;;;;;3.32;81.64;101050.02;105793;1291;73217;-56
2024/01/24 00:40:31;;;;;;;;;;;;;;;3.36;81.61;101038.48;105837;1293;59591;-56
2024/01/24 00:43:17;;;;;;;;;;;;;;;3.37;81.46;101018.93;105835;1293;59024;-57
2024/01/24 00:46:06;;;;;;;;;;;;;;;3.36;81.42;101013.97;105879;1295;73435;-55
2024/01/24 00:48:52;;;;;;;;;;;;;;;3.39;81.38;101000.23;105853;1293;69113;-56
2024/01/24 00:51:38;;;;;;;;;;;;;;;3.41;81.50;100983.23;105084;1291;71318;-54
2024/01/24 00:54:34;;;;;;;;;;;;;;;3.41;81.30;100972.65;104543;1293;60361;-54
2024/01/24 00:57:21;;;;;;;;;;;;;;;3.44;81.33;100967.60;104514;1293;61064;-51
2024/01/24 01:00:08;;;;;;;;;;;;;;;3.46;81.28;100964.73;104545;1296;73143;-55
2024/01/24 01:02:54;;;;;;;;;;;;;;;3.46;81.18;100965.27;105801;1293;67397;-56
2024/01/24 01:05:40;;;;;;;;;;;;;;;3.48;81.12;100954.89;105783;1293;71416;-56
2024/01/24 01:08:26;;;;;;;;;;;;;;;3.47;80.79;100933.57;105777;1292;59271;-56
2024/01/24 01:11:12;;;;;;;;;;;;;;;3.47;81.02;100911.58;105827;1293;59568;-56
2024/01/24 01:13:58;;;;;;;;;;;;;;;3.48;80.96;100895.92;105876;1292;73654;-55
2024/01/24 01:16:44;;;;;;;;;;;;;;;3.43;80.86;100884.08;105810;1293;68368;-56
2024/01/24 01:19:30;;;;;;;;;;;;;;;3.39;80.96;100887.76;105782;1293;71224;-56
2024/01/24 01:22:16;;;;;;;;;;;;;;;3.33;80.97;100888.66;105796;1294;59178;-55
2024/01/24 01:25:03;;;;;;;;;;;;;;;3.29;81.05;100901.89;105802;1293;59036;-56
2024/01/24 01:27:48;;;;;;;;;;;;;;;3.28;81.11;100912.77;105787;1292;74587;-56
2024/01/24 01:30:34;;;;;;;;;;;;;;;3.33;81.01;100912.87;105854;1293;67229;-56
2024/01/24 01:33:20;;;;;;;;;;;;;;;3.37;81.04;100899.81;105843;1293;71985;-57
2024/01/24 01:36:06;;;;;;;;;;;;;;;3.37;81.11;100876.31;105829;1294;59213;-56
2024/01/24 01:38:52;;;;;;;;;;;;;;;3.40;80.81;100853.02;105760;1292;59814;-56
2024/01/24 01:41:38;;;;;;;;;;;;;;;3.41;80.77;100814.52;105829;1293;73455;-56
2024/01/24 01:44:24;;;;;;;;;;;;;;;3.44;80.73;100795.48;105801;1293;68480;-55
2024/01/24 01:47:10;;;;;;;;;;;;;;;3.46;80.93;100784.28;105757;1293;72432;-56
2024/01/24 01:49:56;;;;;;;;;;;;;;;3.47;80.89;100780.53;105795;1292;59357;-55
2024/01/24 01:52:43;;;;;;;;;;;;;;;3.46;80.81;100767.58;105829;1293;59696;-56
2024/01/24 01:55:30;;;;;;;;;;;;;;;3.46;80.58;100756.84;105531;1293;399837;-56
2024/01/24 01:58:16;;;;;;;;;;;;;;;3.49;80.59;100744.45;105774;1293;67906;-56
2024/01/24 02:01:03;;;;;;;;;;;;;;;3.50;80.55;100727.25;105804;1294;71302;-56
2024/01/24 02:03:49;;;;;;;;;;;;;;;3.53;80.61;100705.48;105682;1292;214785;-56
2024/01/24 02:06:35;;;;;;;;;;;;;;;3.52;80.33;100676.99;105814;1293;59282;-56
2024/01/24 02:09:21;;;;;;;;;;;;;;;3.53;80.37;100673.61;105788;1293;73390;-55
2024/01/24 02:12:07;;;;;;;;;;;;;;;3.52;80.34;100675.63;105789;1293;68397;-56
2024/01/24 02:14:53;;;;;;;;;;;;;;;3.55;80.32;100666.64;105641;1293;72466;-56
2024/01/24 02:17:39;;;;;;;;;;;;;;;3.53;80.33;100652.80;105787;1294;59266;-56
2024/01/24 02:20:26;;;;;;;;;;;;;;;3.53;80.15;100650.77;105817;1293;59178;-56
2024/01/24 02:23:12;;;;;;;;;;;;;;;3.53;80.32;100638.83;104893;1295;74608;-55
2024/01/24 02:25:58;;;;;;;;;;;;;;;3.57;80.42;100630.54;104512;1293;67513;-55
2024/01/24 02:28:44;;;;;;;;;;;;;;;3.58;80.17;100616.40;104480;1294;73296;-53
2024/01/24 02:31:31;;;;;;;;;;;;;;;3.58;80.31;100604.98;104215;1292;309223;-51
2024/01/24 02:34:17;;;;;;;;;;;;;;;3.58;80.12;100598.67;104444;1293;61276;-53
2024/01/24 02:37:04;;;;;;;;;;;;;;;3.57;79.96;100598.33;104519;1293;73599;-54
2024/01/24 02:39:50;;;;;;;;;;;;;;;3.56;80.16;100591.16;104529;1293;67348;-55
2024/01/24 02:42:36;;;;;;;;;;;;;;;3.57;80.13;100585.88;104455;1292;74040;-55
2024/01/24 02:45:22;;;;;;;;;;;;;;;3.59;80.27;100579.94;104485;1294;61328;-54
2024/01/24 02:48:08;;;;;;;;;;;;;;;3.58;80.37;100570.39;104487;1293;61259;-55
2024/01/24 02:50:55;;;;;;;;;;;;;;;3.57;80.18;100556.05;104502;1294;73284;-55
2024/01/24 02:53:41;;;;;;;;;;;;;;;3.57;80.15;100533.73;104468;1296;68403;-55
2024/01/24 02:56:27;;;;;;;;;;;;;;;3.59;80.20;100523.35;104468;1294;71314;-55
2024/01/24 02:59:13;;;;;;;;;;;;;;;3.55;80.68;100512.40;104487;1293;61378;-56
2024/01/24 03:01:59;;;;;;;;;;;;;;;3.48;80.90;100501.76;104488;1294;61189;-56
2024/01/24 03:04:45;;;;;;;;;;;;;;;3.42;81.44;100492.66;104459;1293;72871;-55
2024/01/24 03:07:31;;;;;;;;;;;;;;;3.35;82.74;100481.85;104508;1293;68548;-54
2024/01/24 03:10:18;;;;;;;;;;;;;;;3.23;85.42;100479.66;104473;1294;74067;-53
2024/01/24 03:13:04;;;;;;;;;;;;;;;3.12;85.59;100475.46;104436;1294;61399;-53
2024/01/24 03:15:50;;;;;;;;;;;;;;;3.01;86.80;100465.98;104466;1296;61166;-52
2024/01/24 03:18:39;;;;;;;;;;;;;;;2.93;89.00;100456.34;104514;1294;73183;-55
2024/01/24 03:21:25;;;;;;;;;;;;;;;2.92;88.38;100454.80;104493;1293;66601;-55
2024/01/24 03:24:12;;;;;;;;;;;;;;;2.95;86.66;100450.59;104400;1293;71126;-53
2024/01/24 03:26:58;;;;;;;;;;;;;;;3.05;86.75;100427.71;104475;1296;61194;-52
2024/01/24 03:29:44;;;;;;;;;;;;;;;3.10;86.74;100431.34;104492;1295;61277;-55
2024/01/24 03:32:30;;;;;;;;;;;;;;;3.16;87.22;100408.56;104492;1294;73255;-55
2024/01/24 03:35:16;;;;;;;;;;;;;;;3.22;86.31;100386.31;104506;1292;67257;-55
2024/01/24 03:38:04;;;;;;;;;;;;;;;3.26;86.87;100365.92;104450;1296;71235;-55
2024/01/24 03:40:50;;;;;;;;;;;;;;;3.20;87.46;100362.27;104442;1294;61277;-54
2024/01/24 03:43:39;;;;;;;;;;;;;;;3.13;87.15;100373.97;104452;1292;61563;-54
2024/01/24 03:46:26;;;;;;;;;;;;;;;3.03;88.62;100371.33;104459;1293;73134;-55
2024/01/24 03:49:12;;;;;;;;;;;;;;;2.95;88.59;100380.09;104518;1296;67311;-55
2024/01/24 03:51:58;;;;;;;;;;;;;;;2.85;92.57;100386.27;104476;1293;73295;-54
2024/01/24 03:54:44;;;;;;;;;;;;;;;2.82;92.39;100357.98;104502;1296;61173;-54
2024/01/24 03:57:30;;;;;;;;;;;;;;;2.83;91.88;100347.61;104494;1293;64311;-54
2024/01/24 04:00:16;;;;;;;;;;;;;;;2.76;93.97;100349.58;104418;1293;73595;-52
2024/01/24 04:03:03;;;;;;;;;;;;;;;2.75;96.02;100333.39;104479;1296;67354;-55
2024/01/24 04:05:49;;;;;;;;;;;;;;;2.77;95.67;100331.37;104480;1296;71307;-54
2024/01/24 04:08:35;;;;;;;;;;;;;;;2.77;97.14;100327.29;104525;1294;61552;-54
2024/01/24 04:11:21;;;;;;;;;;;;;;;2.77;98.47;100306.36;104482;1293;59877;-54
2024/01/24 04:14:09;;;;;;;;;;;;;;;2.79;99.26;100299.06;104452;1293;73218;-55
2024/01/24 04:16:55;;;;;;;;;;;;;;;2.79;100.00;100283.91;104491;1293;67193;-55
2024/01/24 04:19:48;;;;;;;;;;;;;;;2.85;99.38;100266.77;104470;1292;75174;-54
2024/01/24 04:22:38;;;;;;;;;;;;;;;2.87;99.86;100256.41;104489;1296;60779;-55
2024/01/24 04:25:24;;;;;;;;;;;;;;;2.91;99.70;100252.02;104472;1293;61071;-54
2024/01/24 04:28:14;;;;;;;;;;;;;;;2.93;99.80;100245.23;104509;1294;77165;-54
2024/01/24 04:31:00;;;;;;;;;;;;;;;2.95;100.00;100233.68;104484;1293;67438;-55
2024/01/24 04:33:52;;;;;;;;;;;;;;;2.98;100.00;100237.95;104458;1293;72471;-54
2024/01/24 04:36:49;;;;;;;;;;;;;;;;;;;;;
2024/01/24 04:40:02;;;;;;;;;;;;;;;;;;;;;
2024/01/24 04:42:51;;;;;;;;;;;;;;;3.08;100.00;100203.80;104494;1293;73588;-54
2024/01/24 04:45:40;;;;;;;;;;;;;;;3.09;100.00;100191.39;104505;1293;67452;-56
2024/01/24 04:48:29;;;;;;;;;;;;;;;3.10;100.00;100181.36;104486;1296;74175;-55
2024/01/24 04:51:16;;;;;;;;;;;;;;;3.15;100.00;100173.52;104471;1293;61189;-55
2024/01/24 04:54:05;;;;;;;;;;;;;;;3.25;100.00;100166.10;104474;1294;61182;-56
2024/01/24 04:56:51;;;;;;;;;;;;;;;3.31;100.00;100147.58;104466;1292;73917;-55
2024/01/24 04:59:42;;;;;;;;;;;;;;;3.34;100.00;100139.93;104484;1296;67345;-55
2024/01/24 05:02:28;;;;;;;;;;;;;;;3.40;100.00;100126.84;104468;1293;71320;-55
2024/01/24 05:05:15;;;;;;;;;;;;;;;3.44;100.00;100122.60;104533;1298;61162;-56
2024/01/24 05:08:01;;;;;;;;;;;;;;;3.49;100.00;100123.48;104477;1292;62354;-55
2024/01/24 05:10:48;;;;;;;;;;;;;;;3.58;100.00;100124.38;104517;1293;74514;-53
2024/01/24 05:13:34;;;;;;;;;;;;;;;3.64;100.00;100106.48;104496;1294;69923;-53
2024/01/24 05:16:21;;;;;;;;;;;;;;;3.70;100.00;100095.41;104473;1296;71233;-54
2024/01/24 05:19:07;;;;;;;;;;;;;;;3.70;100.00;100088.95;104490;1296;61637;-51
2024/01/24 05:21:53;;;;;;;;;;;;;;;3.76;100.00;100078.05;104484;1294;61265;-52
2024/01/24 05:24:43;;;;;;;;;;;;;;;3.79;100.00;100062.21;100689;1297;5004048;-55
2024/01/24 05:27:29;;;;;;;;;;;;;;;3.77;100.00;100041.58;104461;1294;71295;-54
2024/01/24 05:30:26;;;;;;;;;;;;;;;3.79;100.00;100039.71;32042;1299;10022419;-54
2024/01/24 05:33:28;;;;;;;;;;;;;;;;;;;;;
2024/01/24 05:36:59;;;;;;;;;;;;;;;3.86;100.00;100009.38;105786;1296;68113;-54
2024/01/24 05:40:25;;;;;;;;;;;;;;;3.88;100.00;100006.82;105499;1298;71748;-53
2024/01/24 05:43:13;;;;;;;;;;;;;;;3.91;100.00;100006.82;104790;1298;61317;-54
2024/01/24 05:46:00;;;;;;;;;;;;;;;3.91;100.00;100008.19;104229;1297;60082;-51
2024/01/24 05:48:46;;;;;;;;;;;;;;;3.94;100.00;100008.87;104245;1299;73198;-55
2024/01/24 05:51:33;;;;;;;;;;;;;;;3.97;100.00;99996.95;104233;1300;67978;-53
2024/01/24 05:54:21;;;;;;;;;;;;;;;3.98;100.00;99995.06;104183;1299;71360;-54
2024/01/24 05:57:29;;;;;;;;;;;;;;;4.00;100.00;99991.83;104238;1296;61347;-54
2024/01/24 06:00:17;;;;;;;;;;;;;;;4.05;100.00;99998.83;104283;1300;61347;-56
2024/01/24 06:03:04;;;;;;;;;;;;;;;4.02;100.00;99985.01;104218;1297;73152;-53
2024/01/24 06:05:50;;;;;;;;;;;;;;;4.02;100.00;99979.38;104137;1299;69391;-54
2024/01/24 06:08:37;;;;;;;;;;;;;;;4.03;100.00;99969.48;104224;1299;75207;-54
2024/01/24 06:11:23;;;;;;;;;;;;;;;4.03;100.00;99964.20;104428;1296;61419;-52
2024/01/24 06:14:10;;;;;;;;;;;;;;;4.04;100.00;99968.64;104459;1296;59543;-55
2024/01/24 06:16:56;;;;;;;;;;;;;;;4.10;100.00;99966.42;104440;1298;75967;-56
2024/01/24 06:19:43;;;;;;;;;;;;;;;4.11;100.00;99956.02;104494;1292;67190;-55
2024/01/24 06:22:29;;;;;;;;;;;;;;;4.18;100.00;99958.04;104417;1296;72046;-55
2024/01/24 06:25:15;;;;;;;;;;;;;;;4.26;100.00;99951.37;104434;1293;61239;-55
2024/01/24 06:28:02;;;;;;;;;;;;;;;4.30;100.00;99939.60;104422;1293;61166;-56
2024/01/24 06:30:48;;;;;;;;;;;;;;;4.40;100.00;99933.95;104354;1293;73267;-56
2024/01/24 06:33:34;;;;;;;;;;;;;;;4.47;100.00;99928.98;104508;1294;69137;-55
2024/01/24 06:36:20;;;;;;;;;;;;;;;4.53;100.00;99924.70;104531;1293;71326;-55
2024/01/24 06:39:07;;;;;;;;;;;;;;;4.65;100.00;99915.45;104460;1292;61320;-55
2024/01/24 06:41:54;;;;;;;;;;;;;;;4.69;100.00;99918.31;104470;1296;61114;-55
2024/01/24 06:44:40;;;;;;;;;;;;;;;4.72;100.00;99913.01;104490;1296;73120;-55
2024/01/24 06:47:26;;;;;;;;;;;;;;;4.81;100.00;99904.10;104446;1296;67797;-55
2024/01/24 06:50:13;;;;;;;;;;;;;;;4.87;100.00;99899.45;104477;1296;74084;-55
2024/01/24 06:53:22;;;;;;;;;;;;;;;4.92;100.00;99888.34;105737;1293;59327;-57
2024/01/24 07:03:31;;;;;;;;;;;;;;;;;;;;;
2024/01/24 07:06:42;;;;;;;;;;;;;;;5.24;100.00;99888.48;104131;1312;71440;-56
2024/01/24 07:09:42;;;;;;;;;;;;;;;;;;;;;
2024/01/24 07:12:48;;;;;;;;;;;;;;;;;;;;;
2024/01/24 07:15:54;;;;;;;;;;;;;;;5.65;100.00;99897.27;104233;1312;74664;-55
2024/01/24 07:18:52;;;;;;;;;;;;;;;5.76;100.00;99893.90;103970;1316;67473;-57
2024/01/24 07:21:57;;;;;;;;;;;;;;;5.84;100.00;99902.22;104210;1310;71537;-56
2024/01/24 07:24:44;;;;;;;;;;;;;;;5.93;100.00;99903.89;104178;1312;59139;-55
2024/01/24 07:27:54;;;;;;;;;;;;;;;5.98;100.00;99886.56;104234;1314;59351;-56
2024/01/24 07:31:03;;;;;;;;;;;;;;;6.05;100.00;99874.70;103900;1312;371972;-56
2024/01/24 07:34:03;;;;;;;;;;;;;;;6.10;100.00;99895.88;104194;1314;67979;-56
2024/01/24 07:37:08;;;;;;;;;;;;;;;6.15;100.00;99886.76;68271;1305;10002509;-53
2024/01/24 07:44:14;;;;;;;;;;;;;;;6.30;100.00;99855.25;105251;1304;67525;-55
2024/01/24 07:47:33;;;;;;;;;;;;;;;;;;;;;
2024/01/24 07:50:42;;;;;;;;;;;;;;;6.47;100.00;99864.33;105138;1299;59832;-54
2024/01/24 07:53:42;;;;;;;;;;;;;;;;;;;;;
2024/01/24 07:57:01;;;;;;;;;;;;;;;6.56;100.00;99859.06;105291;1299;74167;-54
2024/01/24 08:00:28;;;;;;;;;;;;;;;;;;;;;
2024/01/24 08:03:30;;;;;;;;;;;;;;;;;;;;;
2024/01/24 08:10:10;;;;;;;;;;;;;;;;;;;;;
2024/01/24 08:13:22;;;;;;;;;;;;;;;6.93;100.00;99857.54;103808;1312;59080;-54
2024/01/24 08:20:00;;;;;;;;;;;;;;;7.00;100.00;99862.60;103566;1319;74191;-56
2024/01/24 08:23:27;;;;;;;;;;;;;;;7.07;100.00;99864.23;103933;1317;68210;-56
2024/01/24 08:26:32;;;;;;;;;;;;;;;;;;;;;
2024/01/24 08:29:19;;;;;;;;;;;;;;;7.13;100.00;99867.39;102050;1321;61423;-55
2024/01/24 08:32:06;;;;;;;;;;;;;;;7.14;100.00;99875.09;102294;1318;61448;-55
2024/01/24 08:35:24;;;;;;;;;;;;;;;7.16;100.00;99872.33;102281;1323;76046;-56
2024/01/24 08:38:13;;;;;;;;;;;;;;;7.17;100.00;99870.08;102288;1318;67692;-55
2024/01/24 08:41:04;;;;;;;;;;;;;;;7.20;100.00;99863.16;102300;1317;71248;-55
2024/01/24 08:43:58;;;;;;;;;;;;;;;7.25;100.00;99859.84;102226;1318;61183;-55
2024/01/24 08:46:50;;;;;;;;;;;;;;;7.27;100.00;99861.19;102817;1308;61455;-55
2024/01/24 08:49:42;;;;;;;;;;;;;;;7.31;100.00;99862.81;103415;1306;73642;-54
2024/01/24 08:52:32;;;;;;;;;;;;;;;7.32;100.00;99850.63;103407;1311;70354;-55
2024/01/24 08:55:41;;;;;;;;;;;;;;;7.44;100.00;99846.16;103390;1307;74068;-55
2024/01/24 08:58:36;;;;;;;;;;;;;;;7.47;100.00;99865.48;103658;1304;61377;-55
2024/01/24 09:01:46;;;;;;;;;;;;;;;7.49;100.00;99876.27;103822;1302;62616;-55
2024/01/24 09:05:21;;;;;;;;;;;;;;;7.50;100.00;99873.51;82544;1298;20001841;-55
2024/01/24 09:08:51;;;;;;;;;;;;;;;;;;;;;
2024/01/24 09:11:44;;;;;;;;;;;;;;;7.56;100.00;99874.44;103858;1301;71199;-55
2024/01/24 09:14:37;;;;;;;;;;;;;;;7.63;100.00;99862.15;103847;1303;61404;-55
2024/01/24 09:21:05;;;;;;;;;;;;;;;7.71;100.00;99869.58;105124;1303;74163;-56
2024/01/24 09:24:15;;;;;;;;;;;;;;;7.76;100.00;99851.83;104850;1302;67558;-56
2024/01/24 09:27:31;;;;;;;;;;;;;;;7.83;100.00;99842.75;105096;1302;72244;-56
2024/01/24 09:30:42;;;;;;;;;;;;;;;;;;;;;
2024/01/24 09:33:59;;;;;;;;;;;;;;;;;;;;;
2024/01/24 09:37:08;;;;;;;;;;;;;;;8.01;100.00;99855.13;104368;1302;74525;-55
2024/01/24 09:40:21;;;;;;;;;;;;;;;;;;;;;
2024/01/24 09:43:48;;;;;;;;;;;;;;;8.12;100.00;99868.67;103542;1311;71508;-55
2024/01/24 09:46:40;;;;;;;;;;;;;;;8.15;100.00;99861.23;103697;1304;61058;-55
2024/01/24 09:50:03;;;;;;;;;;;;;;;8.16;100.00;99862.75;103810;1302;61225;-55
2024/01/24 09:53:20;;;;;;;;;;;;;;;;;;;;;
2024/01/24 09:56:29;;;;;;;;;;;;;;;8.23;100.00;99872.26;103898;1300;69522;-56
2024/01/24 09:59:55;;;;;;;;;;;;;;;8.22;100.00;99860.25;103878;1300;71340;-58
2024/01/24 10:03:16;;;;;;;;;;;;;;;;;;;;;
2024/01/24 10:06:06;;;;;;;;;;;;;;;8.20;100.00;99866.63;103515;1306;61338;-53
2024/01/24 10:08:53;;;;;;;;;;;;;;;8.21;100.00;99863.38;103616;1306;72221;-53
2024/01/24 10:11:43;;;;;;;;;;;;;;;8.16;100.00;99864.14;103574;1306;68461;-54
2024/01/24 10:14:35;;;;;;;;;;;;;;;8.15;100.00;99862.63;103632;1306;73201;-55
2024/01/24 10:17:22;;;;;;;;;;;;;;;8.14;100.00;99854.58;103765;1300;61274;-53
2024/01/24 10:20:09;;;;;;;;;;;;;;;8.12;100.00;99851.50;103984;1304;61165;-55
2024/01/24 10:23:04;;;;;;;;;;;;;;;8.11;100.00;99854.10;101583;1299;5002269;-54
2024/01/24 10:26:31;;;;;;;;;;;;;;;8.11;100.00;99866.30;105156;1300;67528;-54
2024/01/24 10:29:24;;;;;;;;;;;;;;;8.13;100.00;99856.30;105287;1299;71339;-54
2024/01/24 10:32:40;;;;;;;;;;;;;;;8.20;100.00;99844.15;105254;1300;59358;-52
2024/01/24 10:35:33;;;;;;;;;;;;;;;8.39;100.00;99845.33;105284;1299;60712;-53
2024/01/24 10:38:43;;;;;;;;;;;;;;;;;;;;;
2024/01/24 10:41:53;;;;;;;;;;;;;;;8.73;100.00;99836.07;105312;1299;67163;-56
2024/01/24 10:45:04;;;;;;;;;;;;;;;;;;;;;
2024/01/24 10:48:07;;;;;;;;;;;;;;;8.70;100.00;99823.26;105729;1293;59211;-55
2024/01/24 10:51:24;;;;;;;;;;;;;;;;;;;;;
2024/01/24 10:54:35;;;;;;;;;;;;;;;8.96;100.00;99813.02;105406;1297;74754;-56
2024/01/24 10:57:27;;;;;;;;;;;;;;;9.08;100.00;99817.40;105339;1297;68638;-55
2024/01/24 11:00:22;;;;;;;;;;;;;;;9.10;100.00;99823.52;105334;1298;74152;-56
2024/01/24 11:03:11;;;;;;;;;;;;;;;9.07;100.00;99828.08;105369;1296;59455;-55
2024/01/24 11:06:00;;;;;;;;;;;;;;;9.03;100.00;99821.81;105378;1299;59536;-56
2024/01/24 11:08:52;;;;;;;;;;;;;;;9.00;100.00;99829.79;105357;1298;74386;-56
2024/01/24 11:11:42;;;;;;;;;;;;;;;9.00;100.00;99832.55;105360;1299;68866;-55
2024/01/24 11:14:36;;;;;;;;;;;;;;;9.02;100.00;99832.15;105312;1299;72443;-56
2024/01/24 11:17:31;;;;;;;;;;;;;;;9.01;100.00;99830.10;105360;1299;59098;-54
2024/01/24 11:20:27;;;;;;;;;;;;;;;9.00;100.00;99830.99;105729;1293;59028;-56
2024/01/24 11:23:35;;;;;;;;;;;;;;;9.08;100.00;99832.71;105750;1293;75548;-55
2024/01/24 11:26:21;;;;;;;;;;;;;;;9.16;100.00;99838.88;105733;1293;67439;-56
2024/01/24 11:29:34;;;;;;;;;;;;;;;9.25;100.00;99837.29;105749;1293;72420;-57
2024/01/24 11:32:47;;;;;;;;;;;;;;;9.43;100.00;99843.05;105660;1294;61373;-55
2024/01/24 11:35:55;;;;;;;;;;;;;;;9.59;100.00;99847.83;105617;1293;59641;-57
2024/01/24 11:38:53;;;;;;;;;;;;;;;9.66;100.00;99850.05;105787;1293;75735;-55
2024/01/24 11:41:42;;;;;;;;;;;;;;;9.93;100.00;99847.81;105708;1293;67418;-59
2024/01/24 11:44:30;;;;;;;;;;;;;;;10.07;100.00;99836.42;105725;1293;72504;-58
2024/01/24 11:47:16;;;;;;;;;;;;;;;10.27;100.00;99827.64;105800;1293;58755;-58
2024/01/24 11:50:08;;;;;;;;;;;;;;;10.53;100.00;99831.02;105819;1293;59370;-53
2024/01/24 11:53:08;;;;;;;;;;;;;;;;;;;;;
2024/01/24 11:55:56;;;;;;;;;;;;;;;10.38;99.48;99825.96;105118;1293;71359;-54
2024/01/24 11:58:54;;;;;;;;;;;;;;;;;;;;;
2024/01/24 12:01:52;;;;;;;;;;;;;;;10.07;97.07;99827.12;105735;1295;59024;-54
2024/01/24 12:04:42;;;;;;;;;;;;;;;9.91;96.96;99817.89;105771;1293;73227;-56
2024/01/24 12:07:40;;;;;;;;;;;;;;;;;;;;;
2024/01/24 12:10:35;;;;;;;;;;;;;;;9.64;97.05;99839.27;105568;1293;71502;-56
2024/01/24 12:13:22;;;;;;;;;;;;;;;9.53;98.61;99855.20;104416;1293;59773;-55
2024/01/24 12:16:09;;;;;;;;;;;;;;;9.36;98.72;99856.13;105294;1293;61629;-55
2024/01/24 12:19:10;;;;;;;;;;;;;;;9.06;97.73;99863.00;105701;1293;73712;-55
2024/01/24 12:21:58;;;;;;;;;;;;;;;8.74;98.23;99875.05;105656;1293;67365;-54
2024/01/24 12:24:47;;;;;;;;;;;;;;;8.51;99.28;99876.53;105665;1293;71449;-55
2024/01/24 12:27:33;;;;;;;;;;;;;;;8.30;99.75;99847.57;105747;1293;59161;-54
2024/01/24 12:30:22;;;;;;;;;;;;;;;8.09;99.62;99846.75;32403;1293;10002165;-54
2024/01/24 12:33:16;;;;;;;;;;;;;;;7.98;99.77;99861.70;105734;1293;71794;-54
2024/01/24 12:36:05;;;;;;;;;;;;;;;7.87;99.98;99864.30;105714;1293;59005;-53
2024/01/24 12:38:57;;;;;;;;;;;;;;;7.79;100.00;99862.57;105745;1295;59466;-55
2024/01/24 12:41:46;;;;;;;;;;;;;;;7.79;100.00;99850.22;105788;1293;72446;-55
2024/01/24 12:44:32;;;;;;;;;;;;;;;8.04;100.00;99837.39;105765;1293;68515;-55
2024/01/24 12:47:20;;;;;;;;;;;;;;;8.76;100.00;99838.90;105839;1292;73116;-55
2024/01/24 12:50:17;;;;;;;;;;;;;;;;;;;;;
2024/01/24 12:53:20;;;;;;;;;;;;;;;10.02;98.41;99842.58;105815;1296;59795;-55
2024/01/24 12:56:19;;;;;;;;;;;;;;;;;;;;;
2024/01/24 12:59:06;;;;;;;;;;;;;;;10.26;95.05;99835.77;105849;1293;67359;-54
2024/01/24 13:01:56;;;;;;;;;;;;;;;10.43;95.56;99839.92;105794;1292;72475;-54
2024/01/24 13:04:45;;;;;;;;;;;;;;;10.53;93.15;99840.50;105888;1293;59011;-54
2024/01/24 13:07:39;;;;;;;;;;;;;;;10.69;93.79;99845.23;105710;1292;59011;-54
2024/01/24 13:10:43;;;;;;;;;;;;;;;;;;;;;
2024/01/24 13:13:42;;;;;;;;;;;;;;;;;;;;;
2024/01/24 13:16:59;;;;;;;;;;;;;;;;;;;;;
2024/01/24 13:20:09;;;;;;;;;;;;;;;;;;;;;
2024/01/24 13:22:58;;;;;;;;;;;;;;;10.21;92.50;99843.14;105887;1293;58884;-53
2024/01/24 13:25:57;;;;;;;;;;;;;;;9.94;91.47;99854.17;105779;1291;74545;-52
2024/01/24 13:28:52;;;;;;;;;;;;;;;9.69;92.11;99858.58;105922;1291;68046;-54
2024/01/24 13:31:41;;;;;;;;;;;;;;;9.56;92.88;99864.75;105884;1293;72562;-53
2024/01/24 13:34:29;;;;;;;;;;;;;;;9.43;92.58;99868.66;105859;1291;59161;-54
2024/01/24 13:37:18;;;;;;;;;;;;;;;9.34;93.45;99868.75;105854;1291;58918;-54
2024/01/24 13:40:08;;;;;;;;;;;;;;;9.21;93.49;99869.55;105884;1293;74666;-54
2024/01/24 13:42:57;;;;;;;;;;;;;;;9.11;94.24;99883.86;105801;1292;68514;-54
2024/01/24 13:45:43;;;;;;;;;;;;;;;9.03;94.81;99895.06;105794;1293;71318;-54
2024/01/24 13:48:34;;;;;;;;;;;;;;;8.87;94.94;99909.47;105814;1293;59150;-53
2024/01/24 13:51:38;;;;;;;;;;;;;;;8.72;95.65;99912.38;105803;1293;58790;-54
2024/01/24 13:54:28;;;;;;;;;;;;;;;8.60;96.08;99895.42;103105;1293;3692975;-50
2024/01/24 13:57:15;;;;;;;;;;;;;;;8.53;96.44;99907.25;105872;1293;67406;-54
2024/01/24 14:00:03;;;;;;;;;;;;;;;8.51;96.68;99904.01;105837;1292;71331;-53
2024/01/24 14:02:49;;;;;;;;;;;;;;;8.50;96.69;99901.64;105851;1293;59002;-54
2024/01/24 14:05:36;;;;;;;;;;;;;;;8.48;95.96;99898.23;105778;1296;59041;-54
2024/01/24 14:08:25;;;;;;;;;;;;;;;8.47;95.91;99900.14;105779;1293;73381;-54
2024/01/24 14:11:14;;;;;;;;;;;;;;;8.44;95.10;99896.60;105775;1291;69408;-53
2024/01/24 14:14:00;;;;;;;;;;;;;;;8.46;95.05;99905.66;105780;1293;71372;-53
2024/01/24 14:16:51;;;;;;;;;;;;;;;8.46;95.04;99899.47;105756;1293;59166;-54
2024/01/24 14:19:49;;;;;;;;;;;;;;;;;;;;;
2024/01/24 14:22:39;;;;;;;;;;;;;;;8.43;94.25;99901.26;105817;1293;75684;-54
2024/01/24 14:25:31;;;;;;;;;;;;;;;8.44;94.96;99907.23;105799;1294;69204;-55
2024/01/24 14:28:17;;;;;;;;;;;;;;;8.44;93.93;99908.45;105769;1296;71382;-54
2024/01/24 14:31:04;;;;;;;;;;;;;;;8.41;93.93;99902.48;105777;1293;59447;-52
2024/01/24 14:33:55;;;;;;;;;;;;;;;8.37;93.65;99912.17;105676;1293;59322;-53
2024/01/24 14:36:42;;;;;;;;;;;;;;;8.39;93.61;99907.17;105845;1292;74612;-50
2024/01/24 14:39:40;;;;;;;;;;;;;;;8.38;93.47;99904.95;105839;1292;68588;-52
2024/01/24 14:42:26;;;;;;;;;;;;;;;8.33;93.53;99908.46;104605;1292;72553;-51
2024/01/24 14:45:13;;;;;;;;;;;;;;;8.31;93.72;99902.33;104482;1296;61167;-50
2024/01/24 14:47:59;;;;;;;;;;;;;;;8.27;93.85;99904.11;32185;1293;10003713;-53
2024/01/24 14:50:45;;;;;;;;;;;;;;;8.25;93.75;99902.61;105667;1293;68474;-53
2024/01/24 14:53:32;;;;;;;;;;;;;;;8.26;93.68;99908.94;104400;1294;71297;-53
2024/01/24 14:56:18;;;;;;;;;;;;;;;8.26;93.22;99908.25;104483;1296;61303;-51
2024/01/24 14:59:04;;;;;;;;;;;;;;;8.25;93.14;99911.02;104485;1292;62842;-53
2024/01/24 15:01:52;;;;;;;;;;;;;;;8.23;93.23;99923.08;104453;1293;76400;-53
2024/01/24 15:04:39;;;;;;;;;;;;;;;8.20;93.16;99925.88;104326;1293;67406;-53
2024/01/24 15:07:25;;;;;;;;;;;;;;;8.15;93.30;99927.85;104441;1296;71222;-54
2024/01/24 15:10:11;;;;;;;;;;;;;;;8.12;93.34;99934.25;104397;1296;61145;-53
2024/01/24 15:12:57;;;;;;;;;;;;;;;8.08;93.31;99943.75;104471;1293;61361;-52
2024/01/24 15:15:44;;;;;;;;;;;;;;;8.04;93.47;99946.90;104491;1294;73162;-52
2024/01/24 15:18:33;;;;;;;;;;;;;;;8.03;93.39;99952.95;104404;1292;67223;-52
2024/01/24 15:21:19;;;;;;;;;;;;;;;8.01;93.76;99958.64;104492;1296;72068;-52
2024/01/24 15:24:07;;;;;;;;;;;;;;;7.96;93.93;99954.08;104519;1293;61172;-54
2024/01/24 15:26:53;;;;;;;;;;;;;;;7.89;94.19;99951.09;104429;1293;62913;-53
2024/01/24 15:29:40;;;;;;;;;;;;;;;7.82;94.33;99959.61;104475;1292;75840;-55
2024/01/24 15:32:30;;;;;;;;;;;;;;;7.76;94.62;99956.48;104511;1293;67695;-54
2024/01/24 15:35:16;;;;;;;;;;;;;;;7.71;94.99;99959.30;104540;1295;71180;-53
2024/01/24 15:38:03;;;;;;;;;;;;;;;7.65;95.22;99951.15;104530;1293;61176;-54
2024/01/24 15:40:49;;;;;;;;;;;;;;;7.59;95.40;99943.68;104496;1293;60517;-56
2024/01/24 15:43:38;;;;;;;;;;;;;;;7.56;95.42;99948.88;104453;1293;76134;-55
2024/01/24 15:46:24;;;;;;;;;;;;;;;7.59;95.43;99953.46;104534;1294;67929;-55
2024/01/24 15:49:11;;;;;;;;;;;;;;;7.62;95.30;99950.52;104383;1296;71340;-57
2024/01/24 15:51:57;;;;;;;;;;;;;;;7.61;95.39;99951.71;104431;1292;61387;-56